Weather at Keluang Airport [CLOSED]

Public forecast

Using degrees Celsius for public forecast. Weather courtesy of forecast.io.

Closest aviation weather report (METAR) to Keluang Airport

Closest report is Sultan Mahmud Badaruddin II Airport, 49.5 nm (91.6 km) ESE.

2024/06/18 12:00 (retrieved 32 minutes ago)

WIPP 181200Z VRB02KT 5000 HZ SCT010 27/25 Q1009 NOSIG

Closest aviation forecast (TAF) to Keluang Airport

Closest forecast is Sultan Mahmud Badaruddin II Airport, 49.5 nm (91.6 km) ESE.

2024/06/18 12:00 (retrieved 32 minutes ago)

TAF TAF WIPP 181100Z 1812/1912 13006KT 9999 SCT010 TEMPO 1820/1824 2000 BR